Time;durP1;ratioP1;P1;durP2;ratioP2;P2;SDS_P1;SDS_P2;PMS_P1;PMS_P2;Temp;Humidity;BMP_temperature;BMP_pressure;BME280_temperature;BME280_humidity;BME280_pressure;Samples;Min_cycle;Max_cycle;Signal;HPM_P1;HPM_P2
2021/09/16 00:00:21;;;;;;;5.68;0.85;;;;;;;14.35;50.76;101128.44;5026346;28;20101;-70
2021/09/16 00:02:47;;;;;;;2.25;0.30;;;;;;;13.75;51.87;101121.88;5021256;28;20038;-69
2021/09/16 00:05:13;;;;;;;8.50;0.10;;;;;;;13.61;52.90;101130.44;5019274;28;20069;-69
2021/09/16 00:07:38;;;;;;;3.50;0.68;;;;;;;14.04;51.65;101133.56;5023993;28;20026;-70
2021/09/16 00:10:05;;;;;;;4.80;0.13;;;;;;;14.11;51.50;101133.16;5020250;28;20475;-70
2021/09/16 00:12:30;;;;;;;1.52;0.10;;;;;;;14.31;51.14;101142.66;5027549;28;20036;-69
2021/09/16 00:14:56;;;;;;;3.30;0.15;;;;;;;13.86;52.24;101136.19;5025071;28;20089;-70
2021/09/16 00:17:22;;;;;;;4.75;0.20;;;;;;;13.36;53.69;101131.59;5025961;28;20390;-70
2021/09/16 00:19:48;;;;;;;2.97;0.28;;;;;;;14.14;51.73;101126.91;5020461;28;20037;-71
2021/09/16 00:22:13;;;;;;;1.65;0.13;;;;;;;14.18;51.73;101128.44;5020943;28;20729;-70
2021/09/16 00:24:39;;;;;;;4.35;0.68;;;;;;;14.14;51.87;101126.91;5027022;28;20021;-70
2021/09/16 00:27:04;;;;;;;1.70;0.17;;;;;;;13.99;52.22;101119.81;5039707;28;20083;-70
2021/09/16 00:29:31;;;;;;;4.40;0.10;;;;;;;14.05;52.19;101124.75;5035351;28;20033;-70
2021/09/16 00:31:57;;;;;;;3.28;0.10;;;;;;;14.11;52.05;101124.44;5022590;28;20036;-70
2021/09/16 00:34:23;;;;;;;3.88;0.10;;;;;;;14.24;52.02;101130.78;5026556;28;20414;-69
2021/09/16 00:36:48;;;;;;;2.22;0.10;;;;;;;13.54;53.73;101127.25;5025273;28;20029;-70
2021/09/16 00:39:14;;;;;;;5.78;0.20;;;;;;;13.65;53.55;101126.72;5021832;28;20125;-69
2021/09/16 00:41:40;;;;;;;2.55;0.10;;;;;;;13.85;52.88;101125.75;5022520;28;20034;-70
2021/09/16 00:44:06;;;;;;;3.28;0.17;;;;;;;13.75;53.27;101120.09;5017263;28;20029;-69
2021/09/16 00:46:31;;;;;;;1.83;0.10;;;;;;;13.91;52.82;101122.81;5008046;28;20033;-71
2021/09/16 00:48:57;;;;;;;7.65;0.20;;;;;;;13.88;53.13;101126.44;5024818;28;20603;-69
2021/09/16 00:51:22;;;;;;;4.82;0.28;;;;;;;14.05;52.76;101124.75;5022159;28;20044;-69
2021/09/16 00:53:51;;;;;;;4.18;0.30;;;;;;;13.87;53.31;101121.25;5042179;28;20033;-69
2021/09/16 00:56:18;;;;;;;1.95;0.17;;;;;;;13.41;54.46;101113.84;5022397;28;20061;-69
2021/09/16 00:58:49;;;;;;;0.55;0.05;;;;;;;13.84;52.95;101117.00;5018748;28;20104;-70
2021/09/16 01:01:15;;;;;;;2.35;0.10;;;;;;;13.71;53.15;101115.94;5026533;28;20125;-69
2021/09/16 01:03:40;;;;;;;1.42;0.10;;;;;;;13.29;54.19;101125.78;5022498;28;20028;-69
2021/09/16 01:06:07;;;;;;;5.60;0.63;;;;;;;13.74;53.01;101121.00;5018817;28;20403;-69
2021/09/16 01:08:33;;;;;;;2.05;0.90;;;;;;;13.52;53.42;101118.59;5038838;28;20041;-69
2021/09/16 01:10:58;;;;;;;3.38;0.10;;;;;;;13.57;53.40;101118.38;5020013;28;20028;-70
2021/09/16 01:13:24;;;;;;;3.55;0.40;;;;;;;13.51;53.51;101117.72;5016874;28;21149;-71
2021/09/16 01:15:50;;;;;;;1.95;0.05;;;;;;;13.50;53.65;101126.53;5021781;28;20113;-71
2021/09/16 01:18:15;;;;;;;0.98;0.00;;;;;;;13.48;53.71;101131.00;5018459;28;20026;-70
2021/09/16 01:20:40;;;;;;;1.73;0.10;;;;;;;13.07;54.77;101115.44;5024881;28;20037;-69
2021/09/16 01:23:06;;;;;;;1.77;0.10;;;;;;;13.17;54.66;101120.25;5023513;28;20060;-71
2021/09/16 01:25:32;;;;;;;4.10;0.20;;;;;;;13.21;54.60;101114.78;5023788;28;20406;-70
2021/09/16 01:27:59;;;;;;;3.17;0.35;;;;;;;13.38;53.88;101119.22;5021729;28;20083;-70
2021/09/16 01:30:26;;;;;;;4.15;0.10;;;;;;;12.64;56.52;101117.38;5023602;28;20029;-69
2021/09/16 01:32:54;;;;;;;2.60;0.28;;;;;;;13.27;54.43;101113.63;5041220;28;20071;-69
2021/09/16 01:35:21;;;;;;;2.88;0.10;;;;;;;13.05;54.84;101114.66;5020667;28;20057;-69
2021/09/16 01:37:47;;;;;;;3.83;0.10;;;;;;;13.08;54.84;101111.88;5021262;28;20091;-70
2021/09/16 01:40:13;;;;;;;4.05;0.15;;;;;;;12.54;56.50;101123.97;5021110;28;20030;-71
2021/09/16 01:42:43;;;;;;;2.42;0.45;;;;;;;12.97;55.22;101115.94;5023911;28;20668;-69
2021/09/16 01:45:13;;;;;;;1.45;0.20;;;;;;;12.63;56.09;101114.84;5022274;28;20041;-69
2021/09/16 01:47:39;;;;;;;3.00;0.10;;;;;;;12.84;55.42;101119.13;5022929;28;20394;-70
2021/09/16 01:50:05;;;;;;;1.80;0.13;;;;;;;12.89;55.41;101127.66;5018530;28;20108;-68
2021/09/16 01:52:30;;;;;;;0.30;0.00;;;;;;;12.86;55.52;101127.78;5018753;28;20064;-69
2021/09/16 01:54:55;;;;;;;4.85;0.38;;;;;;;12.68;55.69;101129.41;5025053;28;20041;-70
2021/09/16 01:57:21;;;;;;;1.38;0.08;;;;;;;12.79;55.75;101130.75;5024055;28;20063;-70
2021/09/16 01:59:46;;;;;;;4.63;0.10;;;;;;;12.69;56.04;101127.69;5022762;28;20021;-70
2021/09/16 02:02:12;;;;;;;3.10;0.20;;;;;;;12.63;56.31;101125.31;5017227;28;20041;-69
2021/09/16 02:04:37;;;;;;;1.77;0.50;;;;;;;12.87;55.13;101123.38;5019358;28;20037;-71
2021/09/16 02:07:03;;;;;;;3.78;0.10;;;;;;;13.02;54.94;101116.56;5020012;28;20029;-70
2021/09/16 02:09:28;;;;;;;4.78;0.15;;;;;;;12.68;56.02;101118.09;5020452;28;20468;-70
2021/09/16 02:11:54;;;;;;;1.42;0.35;;;;;;;12.75;55.80;101113.44;5020379;28;20112;-69
2021/09/16 02:14:19;;;;;;;3.90;0.20;;;;;;;12.07;58.09;101121.63;5014391;28;20025;-70
2021/09/16 02:16:45;;;;;;;0.98;0.30;;;;;;;12.68;55.85;101129.41;5006945;28;20115;-69
2021/09/16 02:19:11;;;;;;;4.00;0.30;;;;;;;12.52;56.81;101127.56;5015517;28;20040;-69
2021/09/16 02:21:36;;;;;;;7.72;0.40;;;;;;;12.68;56.18;101133.81;5024242;28;20146;-70
2021/09/16 02:24:02;;;;;;;2.95;0.10;;;;;;;12.79;56.28;101126.34;5035802;28;20041;-70
2021/09/16 02:26:27;;;;;;;2.25;0.30;;;;;;;12.25;57.70;101120.00;5023291;28;20040;-69
2021/09/16 02:28:53;;;;;;;2.65;0.10;;;;;;;12.78;56.60;101122.03;5022643;28;20037;-69
2021/09/16 02:31:18;;;;;;;3.10;0.10;;;;;;;12.45;57.33;101124.38;5021521;28;20060;-70
2021/09/16 02:33:44;;;;;;;6.20;0.30;;;;;;;12.65;57.24;101121.69;5030320;28;20124;-69
2021/09/16 02:36:09;;;;;;;7.53;0.35;;;;;;;12.90;56.43;101123.25;5024335;28;20049;-69
2021/09/16 02:38:35;;;;;;;3.90;0.75;;;;;;;13.11;55.87;101122.22;5020724;28;20064;-70
2021/09/16 02:41:00;;;;;;;3.72;0.50;;;;;;;13.25;55.52;101124.22;5026547;28;20029;-69
2021/09/16 02:43:25;;;;;;;2.72;0.40;;;;;;;13.24;55.84;101124.28;5021633;28;20719;-70
2021/09/16 02:45:51;;;;;;;6.57;0.32;;;;;;;12.54;57.94;101118.72;5022609;28;20028;-70
2021/09/16 02:48:16;;;;;;;2.97;0.30;;;;;;;12.91;57.18;101109.19;5026653;28;20041;-70
2021/09/16 02:50:42;;;;;;;5.72;0.38;;;;;;;13.18;56.40;101108.81;5024330;28;20034;-70
2021/09/16 02:53:07;;;;;;;4.93;0.43;;;;;;;13.24;56.13;101106.75;5041363;28;20025;-70
2021/09/16 02:55:34;;;;;;;5.53;0.40;;;;;;;13.42;55.71;101110.28;5028797;28;20175;-71
2021/09/16 02:58:00;;;;;;;2.50;0.25;;;;;;;13.04;57.08;101109.47;5010080;28;20175;-69
2021/09/16 03:00:25;;;;;;;1.33;0.20;;;;;;;13.49;55.87;101108.22;5026580;28;20116;-71
2021/09/16 03:02:51;;;;;;;3.85;0.70;;;;;;;13.37;56.13;101116.69;5011180;28;20425;-70
2021/09/16 03:05:16;;;;;;;1.95;0.60;;;;;;;13.37;56.23;101120.16;5025346;28;20032;-70
2021/09/16 03:07:42;;;;;;;4.63;0.43;;;;;;;13.14;57.04;101120.38;5022895;28;20034;-70
2021/09/16 03:10:10;;;;;;;2.03;0.40;;;;;;;13.05;57.51;101111.19;5043316;28;20037;-70
2021/09/16 03:12:35;;;;;;;5.25;0.52;;;;;;;13.31;56.78;101123.06;5013586;28;20040;-69
2021/09/16 03:15:00;;;;;;;6.43;1.08;;;;;;;12.96;57.68;101116.84;5022849;28;20033;-69
2021/09/16 03:17:26;;;;;;;4.22;0.60;;;;;;;12.88;58.30;101127.72;5020217;28;20048;-70
2021/09/16 03:19:51;;;;;;;6.05;0.38;;;;;;;12.77;58.80;101132.59;5024098;28;20120;-69
2021/09/16 03:22:17;;;;;;;5.25;1.17;;;;;;;13.01;57.79;101128.84;5019721;28;20037;-69
2021/09/16 03:24:42;;;;;;;4.10;0.75;;;;;;;13.37;56.69;101130.66;5026766;28;20398;-70
2021/09/16 03:27:08;;;;;;;3.13;0.63;;;;;;;13.25;57.39;101133.84;5009620;28;20084;-72
2021/09/16 03:29:33;;;;;;;5.05;0.40;;;;;;;13.11;57.31;101132.72;5020581;28;20030;-68
2021/09/16 03:31:59;;;;;;;2.00;0.32;;;;;;;13.01;57.77;101130.63;5024623;28;20032;-70
2021/09/16 03:34:24;;;;;;;4.65;0.80;;;;;;;13.06;57.74;101129.47;5020919;28;20472;-69
2021/09/16 03:36:50;;;;;;;7.85;0.50;;;;;;;13.09;57.91;101129.34;5025541;28;20041;-70
2021/09/16 03:39:15;;;;;;;4.40;0.57;;;;;;;13.26;57.54;101127.69;5018057;28;20026;-70
2021/09/16 03:41:41;;;;;;;6.85;0.85;;;;;;;13.39;57.39;101130.59;5022628;28;20029;-70
2021/09/16 03:44:06;;;;;;;3.60;0.60;;;;;;;13.49;57.01;101137.09;5024805;28;20513;-72
2021/09/16 03:46:32;;;;;;;8.13;0.90;;;;;;;13.44;57.26;101134.69;5024073;28;20029;-70
2021/09/16 03:48:57;;;;;;;8.07;1.23;;;;;;;13.44;57.11;101134.69;5023274;28;20057;-70
2021/09/16 03:51:22;;;;;;;5.25;1.08;;;;;;;13.44;57.13;101129.44;5018636;28;20491;-72
2021/09/16 03:53:48;;;;;;;5.80;0.75;;;;;;;13.64;56.98;101135.53;5028000;28;20033;-71
2021/09/16 03:56:13;;;;;;;6.00;0.98;;;;;;;13.47;57.22;101137.19;5042336;28;20056;-69
2021/09/16 03:58:39;;;;;;;2.95;0.73;;;;;;;13.41;57.45;101141.88;5019284;28;20033;-70
2021/09/16 04:01:04;;;;;;;5.53;0.93;;;;;;;13.38;57.68;101142.84;5023834;28;20439;-70
2021/09/16 04:03:30;;;;;;;5.47;1.02;;;;;;;13.59;57.77;101137.56;5023460;28;20030;-70
2021/09/16 04:05:55;;;;;;;7.50;1.90;;;;;;;13.78;56.75;101140.13;5020789;28;20398;-70
2021/09/16 04:08:21;;;;;;;3.33;0.90;;;;;;;13.93;56.48;101142.81;5028129;28;20037;-71
2021/09/16 04:10:46;;;;;;;5.30;1.10;;;;;;;13.94;56.58;101143.66;5025673;28;20029;-68
2021/09/16 04:13:12;;;;;;;3.08;0.90;;;;;;;13.92;56.30;101143.78;5023444;28;20475;-70
2021/09/16 04:15:37;;;;;;;2.72;0.98;;;;;;;13.92;56.62;101154.28;5023696;28;20029;-70
2021/09/16 04:18:03;;;;;;;9.18;1.35;;;;;;;13.94;56.50;101149.81;5024694;28;20030;-71
2021/09/16 04:20:28;;;;;;;6.63;1.08;;;;;;;13.85;56.81;101145.00;5025327;28;20057;-69
2021/09/16 04:22:54;;;;;;;6.90;1.02;;;;;;;13.56;57.21;101153.41;5024189;28;20076;-69
2021/09/16 04:25:19;;;;;;;2.85;1.17;;;;;;;13.99;56.46;101149.56;5026155;28;20709;-69
2021/09/16 04:27:45;;;;;;;4.90;1.05;;;;;;;14.04;56.43;101150.19;5023608;28;20029;-70
2021/09/16 04:30:11;;;;;;;5.30;0.85;;;;;;;13.81;56.86;101148.72;5024295;28;20033;-70
2021/09/16 04:32:37;;;;;;;3.95;1.10;;;;;;;14.05;56.50;101141.34;5026326;28;20029;-69
2021/09/16 04:35:05;;;;;;;5.80;1.05;;;;;;;14.04;56.68;101144.09;5041420;28;20041;-70
2021/09/16 04:37:30;;;;;;;7.38;1.38;;;;;;;14.26;56.07;101143.84;5035242;28;20100;-69
2021/09/16 04:39:56;;;;;;;8.18;0.80;;;;;;;13.84;57.06;101148.53;5025030;28;20475;-70
2021/09/16 04:42:21;;;;;;;3.15;0.90;;;;;;;13.98;56.91;101145.22;5022328;28;20041;-70
2021/09/16 04:44:47;;;;;;;7.18;1.20;;;;;;;13.97;56.68;101142.69;5022014;28;20536;-69
2021/09/16 04:47:12;;;;;;;6.80;0.90;;;;;;;14.17;56.13;101147.78;5021878;28;21518;-70
2021/09/16 04:49:38;;;;;;;2.70;0.70;;;;;;;14.25;56.25;101148.22;5023229;28;20041;-69
2021/09/16 04:52:03;;;;;;;5.22;0.85;;;;;;;14.39;55.72;101142.28;5021415;28;20033;-70
2021/09/16 04:54:29;;;;;;;1.90;0.80;;;;;;;14.40;55.59;101148.38;5024292;28;20026;-69
2021/09/16 04:56:54;;;;;;;9.98;0.98;;;;;;;14.34;55.89;101153.03;5021509;28;20037;-69
2021/09/16 04:59:20;;;;;;;2.45;0.80;;;;;;;14.22;56.01;101158.91;5025564;28;20030;-69
2021/09/16 05:01:45;;;;;;;13.50;1.38;;;;;;;14.24;56.08;101161.47;5020600;28;20044;-70
2021/09/16 05:04:11;;;;;;;6.32;1.27;;;;;;;14.47;55.31;101160.31;5021507;28;20041;-71
2021/09/16 05:06:36;;;;;;;10.73;1.42;;;;;;;14.27;55.64;101161.31;5019058;28;20129;-69
2021/09/16 05:09:02;;;;;;;9.65;1.58;;;;;;;14.43;55.36;101162.25;5022066;28;20033;-69
2021/09/16 05:11:28;;;;;;;2.30;1.00;;;;;;;14.29;55.58;101168.19;5013612;28;20553;-69
2021/09/16 05:13:53;;;;;;;5.10;0.90;;;;;;;14.54;55.20;101170.44;5025397;28;20482;-72
2021/09/16 05:16:18;;;;;;;4.07;0.88;;;;;;;14.71;54.54;101169.53;5006965;28;20033;-69
2021/09/16 05:18:44;;;;;;;7.97;1.05;;;;;;;14.69;54.54;101173.19;5026146;28;20049;-70
2021/09/16 05:21:10;;;;;;;6.65;0.88;;;;;;;14.61;54.77;101170.94;5020630;28;20491;-71
2021/09/16 05:23:35;;;;;;;3.67;0.80;;;;;;;14.53;54.96;101176.63;5021706;28;20065;-70
2021/09/16 05:26:01;;;;;;;5.10;0.70;;;;;;;14.74;54.69;101176.41;5021438;28;20116;-70
2021/09/16 05:28:26;;;;;;;1.98;0.60;;;;;;;14.81;54.62;101171.69;5013848;28;20040;-70
2021/09/16 05:30:52;;;;;;;14.15;1.80;;;;;;;14.82;54.21;101178.66;5019533;28;20037;-70
2021/09/16 05:33:18;;;;;;;7.00;1.23;;;;;;;14.69;54.72;101179.31;5021395;28;20044;-69
2021/09/16 05:35:43;;;;;;;5.88;0.70;;;;;;;14.74;54.39;101177.25;5020610;28;20038;-70
2021/09/16 05:38:09;;;;;;;2.20;0.70;;;;;;;14.84;54.65;101179.44;5018351;28;20108;-70
2021/09/16 05:40:35;;;;;;;3.67;0.82;;;;;;;14.84;54.29;101182.06;5022067;28;20029;-70
2021/09/16 05:43:00;;;;;;;6.30;1.30;;;;;;;14.89;54.30;101188.78;5019672;28;20033;-69
2021/09/16 05:45:26;;;;;;;5.43;0.75;;;;;;;14.86;54.23;101190.72;5018967;28;20099;-70
2021/09/16 05:47:52;;;;;;;7.30;0.85;;;;;;;14.82;54.10;101184.78;5023910;28;20041;-70
2021/09/16 05:50:17;;;;;;;9.38;1.83;;;;;;;14.86;54.11;101190.72;5021986;28;20037;-69
2021/09/16 05:52:43;;;;;;;6.30;0.82;;;;;;;14.66;54.71;101192.63;5019669;28;20506;-70
2021/09/16 05:55:10;;;;;;;4.07;1.23;;;;;;;14.73;54.33;101188.72;5024026;28;20044;-70
2021/09/16 05:57:35;;;;;;;2.35;0.85;;;;;;;14.98;54.06;101190.06;5027338;28;20041;-69
2021/09/16 06:00:05;;;;;;;3.95;0.70;;;;;;;14.88;53.70;101189.72;5019123;28;20029;-70
2021/09/16 06:02:31;;;;;;;5.78;0.95;;;;;;;15.14;53.54;101196.19;5025003;28;20044;-71
2021/09/16 06:04:57;;;;;;;3.88;1.35;;;;;;;15.12;53.79;101186.69;5027085;28;20441;-70
2021/09/16 06:07:22;;;;;;;2.05;0.60;;;;;;;15.37;53.50;101187.09;5031770;28;20037;-70
2021/09/16 06:09:48;;;;;;;4.25;0.98;;;;;;;15.58;52.99;101186.81;5020254;28;20060;-69
2021/09/16 06:12:13;;;;;;;1.77;0.47;;;;;;;15.81;52.56;101188.13;5013987;28;20359;-71
2021/09/16 06:14:39;;;;;;;9.80;1.20;;;;;;;15.84;51.67;101189.75;5024860;28;20032;-69
2021/09/16 06:17:05;;;;;;;3.75;1.02;;;;;;;16.06;51.37;101184.09;5027920;28;20479;-69
2021/09/16 06:19:30;;;;;;;2.55;0.70;;;;;;;15.99;51.03;101191.50;5031192;28;20454;-70
2021/09/16 06:21:56;;;;;;;5.18;0.70;;;;;;;16.01;51.24;101200.19;5024096;28;20057;-71
2021/09/16 06:24:21;;;;;;;5.53;1.40;;;;;;;16.29;50.75;101196.81;5023974;28;20025;-70
2021/09/16 06:26:47;;;;;;;4.50;0.95;;;;;;;16.19;49.73;101193.00;5027182;28;20052;-70
2021/09/16 06:29:12;;;;;;;6.13;0.95;;;;;;;16.33;49.92;101189.53;5044491;23;20053;-70
2021/09/16 06:31:38;;;;;;;2.33;0.63;;;;;;;16.41;49.41;101195.22;5018681;28;20503;-66
2021/09/16 06:34:03;;;;;;;6.35;1.15;;;;;;;16.31;50.09;101200.22;5005494;28;20034;-66
2021/09/16 06:36:29;;;;;;;7.25;1.10;;;;;;;16.45;49.12;101199.38;5007686;28;20564;-68
2021/09/16 06:38:55;;;;;;;2.63;0.73;;;;;;;16.49;49.17;101200.91;5005743;28;20535;-65
2021/09/16 06:41:20;;;;;;;2.17;0.65;;;;;;;15.78;49.66;101204.13;5039257;28;20177;-67
2021/09/16 06:43:46;;;;;;;10.07;1.17;;;;;;;16.07;49.29;101201.66;5023329;28;20398;-67
2021/09/16 06:46:11;;;;;;;2.97;1.48;;;;;;;16.01;49.29;101208.09;5021256;28;20338;-66
2021/09/16 06:48:37;;;;;;;5.57;0.70;;;;;;;15.90;49.20;101210.47;5023651;28;20473;-67
2021/09/16 06:51:02;;;;;;;2.58;1.17;;;;;;;15.86;49.13;101209.78;5022023;28;20518;-68
2021/09/16 06:53:28;;;;;;;4.47;0.73;;;;;;;15.86;49.19;101215.06;5022776;28;20359;-67
2021/09/16 06:55:53;;;;;;;4.18;0.50;;;;;;;15.94;48.89;101212.00;5022183;28;20037;-67
2021/09/16 06:58:19;;;;;;;5.10;1.10;;;;;;;15.87;49.05;101216.78;5020431;28;20040;-66
2021/09/16 07:00:44;;;;;;;1.70;0.43;;;;;;;15.98;48.49;101214.38;5024706;28;20048;-66
2021/09/16 07:03:10;;;;;;;4.95;0.70;;;;;;;16.02;48.45;101225.63;5019912;28;20026;-65
2021/09/16 07:05:35;;;;;;;3.50;0.60;;;;;;;16.18;48.14;101225.59;5023522;28;20041;-67
2021/09/16 07:08:01;;;;;;;3.60;1.10;;;;;;;16.18;48.06;101220.31;5015497;28;20041;-68
2021/09/16 07:10:26;;;;;;;1.88;0.45;;;;;;;16.72;47.49;101219.78;5022331;28;20038;-65
2021/09/16 07:12:51;;;;;;;1.15;0.20;;;;;;;16.70;46.28;101222.50;5023989;28;20060;-68
2021/09/16 07:15:18;;;;;;;2.83;0.50;;;;;;;17.38;44.71;101226.25;5022505;28;20025;-68
2021/09/16 07:17:43;;;;;;;2.88;0.20;;;;;;;17.30;43.99;101225.91;5022429;28;20045;-68
2021/09/16 07:20:10;;;;;;;2.30;0.20;;;;;;;17.29;43.89;101227.72;5020968;28;20029;-67
2021/09/16 07:22:38;;;;;;;4.85;0.20;;;;;;;17.43;44.08;101237.41;5021929;28;20063;-66
2021/09/16 07:25:05;;;;;;;2.05;0.65;;;;;;;17.05;45.22;101237.16;5023006;28;20120;-67
2021/09/16 07:27:30;;;;;;;0.55;0.10;;;;;;;16.63;46.32;101234.38;5022256;28;20034;-67
2021/09/16 07:29:59;;;;;;;2.05;0.35;;;;;;;16.25;47.13;101231.38;5022206;28;20117;-68
2021/09/16 07:32:24;;;;;;;4.22;0.30;;;;;;;15.95;48.23;101251.47;5023714;28;20168;-67
2021/09/16 07:34:50;;;;;;;2.15;0.98;;;;;;;16.49;48.05;101242.22;5023413;28;20123;-67
2021/09/16 07:37:16;;;;;;;1.63;0.30;;;;;;;17.02;47.13;101243.47;5022246;28;20124;-67
2021/09/16 07:39:41;;;;;;;3.03;0.30;;;;;;;17.44;45.39;101254.94;5040736;28;20075;-66
2021/09/16 07:42:07;;;;;;;0.85;0.10;;;;;;;17.14;45.91;101258.56;5027894;28;20202;-67
2021/09/16 07:44:32;;;;;;;1.23;0.10;;;;;;;16.53;47.17;101263.09;5025539;28;20029;-68
2021/09/16 07:46:58;;;;;;;1.83;0.10;;;;;;;16.92;46.47;101263.47;5023474;28;20466;-67
2021/09/16 07:49:23;;;;;;;1.27;0.10;;;;;;;17.00;46.99;101271.75;5024930;28;20047;-67
2021/09/16 07:51:49;;;;;;;5.40;0.60;;;;;;;16.82;47.26;101274.59;5023768;28;20041;-67
2021/09/16 07:54:14;;;;;;;2.47;0.10;;;;;;;16.58;47.67;101276.88;5019060;28;20034;-66
2021/09/16 07:56:40;;;;;;;2.40;0.10;;;;;;;16.24;49.08;101285.03;5022270;28;20037;-66
2021/09/16 07:59:06;;;;;;;2.28;0.13;;;;;;;15.70;50.40;101283.59;5019465;28;20057;-67
2021/09/16 08:01:32;;;;;;;2.45;0.30;;;;;;;15.41;52.04;101279.94;5021265;28;20037;-71
2021/09/16 08:03:58;;;;;;;1.35;0.15;;;;;;;14.90;53.73;101279.09;5015802;28;20559;-66
2021/09/16 08:06:23;;;;;;;0.98;0.10;;;;;;;15.36;53.05;101284.59;5019597;28;20183;-67
2021/09/16 08:08:49;;;;;;;3.45;0.22;;;;;;;15.61;52.59;101284.09;5018850;28;20029;-66
2021/09/16 08:11:14;;;;;;;3.28;0.30;;;;;;;15.78;52.22;101280.56;5019781;28;20508;-67
2021/09/16 08:13:40;;;;;;;3.80;0.20;;;;;;;15.57;51.81;101277.31;5020211;28;20045;-67
2021/09/16 08:16:06;;;;;;;1.42;0.40;;;;;;;16.42;49.92;101282.19;5015516;28;20623;-66
2021/09/16 08:18:32;;;;;;;2.60;0.30;;;;;;;17.28;47.95;101275.34;5034726;28;20061;-66
2021/09/16 08:20:57;;;;;;;1.08;0.30;;;;;;;17.84;45.12;101274.41;5019592;28;20032;-65
2021/09/16 08:23:24;;;;;;;1.00;0.10;;;;;;;20.27;42.02;101270.03;5018758;28;20044;-66
2021/09/16 08:25:50;;;;;;;0.35;0.10;;;;;;;20.58;39.36;101283.63;5016835;28;20039;-66
2021/09/16 08:28:16;;;;;;;2.65;0.22;;;;;;;19.91;40.10;101285.88;5019541;28;20037;-66
2021/09/16 08:30:42;;;;;;;2.13;0.22;;;;;;;19.49;41.84;101288.00;5018685;28;20651;-66
2021/09/16 08:33:08;;;;;;;2.67;0.20;;;;;;;18.55;42.49;101282.19;5018581;28;20037;-67
2021/09/16 08:35:34;;;;;;;0.90;0.10;;;;;;;19.24;41.87;101277.44;5022395;28;20025;-66
2021/09/16 08:38:00;;;;;;;3.58;0.52;;;;;;;18.60;42.39;101282.72;5023453;28;20091;-67
2021/09/16 08:40:25;;;;;;;0.70;0.20;;;;;;;17.82;44.36;101297.47;5023519;28;20041;-67
2021/09/16 08:42:51;;;;;;;2.17;0.28;;;;;;;17.87;44.70;101289.22;5023321;28;20045;-65
2021/09/16 08:45:19;;;;;;;2.42;0.10;;;;;;;17.34;46.16;101296.13;5022992;28;20034;-66
2021/09/16 08:47:46;;;;;;;3.50;0.10;;;;;;;17.77;44.54;101285.50;5038461;28;20092;-67
2021/09/16 08:50:14;;;;;;;2.13;0.57;;;;;;;17.95;44.39;101289.59;5020825;28;20132;-66
2021/09/16 08:52:42;;;;;;;3.75;0.65;;;;;;;18.24;44.11;101279.78;5021896;28;20491;-67
2021/09/16 08:55:10;;;;;;;1.55;0.10;;;;;;;17.89;43.95;101291.78;5021373;28;20025;-66
2021/09/16 08:57:41;;;;;;;6.07;1.08;;;;;;;16.85;46.90;101289.38;5020589;28;20059;-67
2021/09/16 09:00:10;;;;;;;3.97;0.10;;;;;;;17.05;47.35;101293.47;5021141;28;20025;-68
2021/09/16 09:02:37;;;;;;;5.05;0.20;;;;;;;16.66;47.77;101286.94;5036961;28;20111;-68
2021/09/16 09:05:04;;;;;;;2.58;0.20;;;;;;;16.88;47.09;101288.34;5020845;28;20037;-66
2021/09/16 09:07:57;;;;;;;2.72;0.15;;;;;;;17.13;46.61;101293.81;5022405;28;20029;-67
2021/09/16 09:10:44;;;;;;;3.45;0.28;;;;;;;17.54;45.94;101293.09;5017441;28;20091;-68
2021/09/16 09:13:14;;;;;;;6.25;0.75;;;;;;;17.76;45.56;101292.59;5017657;28;20418;-68
2021/09/16 09:15:42;;;;;;;2.58;0.30;;;;;;;18.44;44.45;101294.31;5021288;28;20036;-68
2021/09/16 09:18:19;;;;;;;2.50;0.80;;;;;;;18.64;42.27;101286.84;5020367;28;20195;-66
2021/09/16 09:21:02;;;;;;;9.40;1.33;;;;;;;18.61;43.09;101295.84;5037101;28;20029;-67
2021/09/16 09:23:37;;;;;;;1.95;0.17;;;;;;;18.24;42.19;101293.00;5036612;28;20040;-68
2021/09/16 09:26:26;;;;;;;3.83;0.60;;;;;;;18.27;42.06;101297.25;5020635;28;20324;-66
2021/09/16 09:29:08;;;;;;;2.40;0.20;;;;;;;18.69;41.23;101303.25;5015421;28;20501;-65
2021/09/16 09:31:54;;;;;;;1.55;0.20;;;;;;;18.87;41.26;101301.16;5021986;28;20044;-68
2021/09/16 09:34:31;;;;;;;3.38;0.20;;;;;;;18.26;41.93;101306.16;5022167;28;20087;-65
2021/09/16 09:37:11;;;;;;;3.10;0.13;;;;;;;18.33;41.75;101311.88;5012131;28;20033;-66
2021/09/16 09:39:38;;;;;;;3.60;0.20;;;;;;;17.40;42.48;101308.91;5025167;28;20122;-67
2021/09/16 09:42:26;;;;;;;3.30;0.20;;;;;;;17.74;41.71;101320.03;5042118;28;20032;-67
2021/09/16 09:45:02;;;;;;;4.07;0.20;;;;;;;16.78;44.09;101315.31;5026278;28;20029;-67
2021/09/16 09:47:38;;;;;;;3.45;0.50;;;;;;;16.78;44.29;101315.31;5026014;28;20030;-68
2021/09/16 09:50:14;;;;;;;4.57;0.32;;;;;;;17.02;44.69;101322.69;5023806;28;20051;-67
2021/09/16 09:52:40;;;;;;;4.38;0.95;;;;;;;17.41;44.11;101314.13;5025696;28;20037;-66
2021/09/16 09:55:11;;;;;;;5.10;0.43;;;;;;;17.73;43.54;101310.44;5025494;28;20031;-65
2021/09/16 09:57:37;;;;;;;;;;;;;;;17.23;44.32;101308.19;5025044;28;20106;-68
2021/09/16 10:00:11;;;;;;;11.32;0.52;;;;;;;17.60;44.00;101310.34;5024520;28;20369;-67
2021/09/16 10:03:00;;;;;;;3.92;0.50;;;;;;;17.22;44.82;101298.56;5025821;28;20033;-66
2021/09/16 10:05:34;;;;;;;12.68;0.50;;;;;;;17.63;43.20;101305.72;5038795;28;20037;-67
2021/09/16 10:08:06;;;;;;;6.13;0.75;;;;;;;17.86;43.82;101316.63;5038607;28;20473;-67
2021/09/16 10:10:43;;;;;;;5.82;0.50;;;;;;;17.85;43.21;101317.59;5025677;28;20029;-66
2021/09/16 10:13:17;;;;;;;3.17;0.73;;;;;;;17.82;43.20;101320.41;5022630;28;20494;-67
2021/09/16 10:15:44;;;;;;;3.53;0.57;;;;;;;18.32;42.40;101311.03;5023845;28;20163;-66
2021/09/16 10:18:09;;;;;;;5.55;0.35;;;;;;;19.79;40.54;101315.09;5039507;28;20083;-66
2021/09/16 10:20:38;;;;;;;2.75;0.30;;;;;;;20.45;38.87;101316.41;5023552;28;20033;-70
2021/09/16 10:23:07;;;;;;;2.58;0.40;;;;;;;20.11;37.54;101321.56;5030442;22;20098;-70
2021/09/16 10:25:33;;;;;;;4.07;0.52;;;;;;;20.00;38.28;101313.53;4984685;28;20034;-69
2021/09/16 10:27:58;;;;;;;3.60;0.20;;;;;;;19.84;38.37;101312.97;4964322;28;20504;-70
2021/09/16 10:30:24;;;;;;;4.28;0.15;;;;;;;18.99;39.48;101315.38;4971358;28;20043;-70
2021/09/16 10:33:09;;;;;;;5.88;0.20;;;;;;;19.16;39.42;101320.38;4973929;28;20134;-69
2021/09/16 10:35:44;;;;;;;6.30;0.45;;;;;;;18.36;40.95;101324.91;4981421;28;20104;-70
2021/09/16 10:38:35;;;;;;;12.43;0.82;;;;;;;18.23;41.31;101327.53;4980310;28;20130;-69
2021/09/16 10:41:27;;;;;;;5.95;0.60;;;;;;;18.36;40.64;101331.03;4963863;28;20042;-69
2021/09/16 10:43:59;;;;;;;2.70;0.20;;;;;;;18.17;40.78;101334.00;4972524;28;20026;-69
2021/09/16 10:46:24;;;;;;;;;;;;;;;18.27;41.40;101329.88;4979936;28;20063;-70
2021/09/16 10:48:50;;;;;;;4.15;0.30;;;;;;;17.87;42.73;101342.13;4965783;28;19957;-69
2021/09/16 10:51:39;;;;;;;1.85;0.30;;;;;;;17.86;42.02;101343.06;4971718;28;20051;-70
2021/09/16 10:54:27;;;;;;;6.90;0.47;;;;;;;17.59;42.51;101351.78;4978017;28;20043;-70
2021/09/16 10:57:16;;;;;;;3.20;0.50;;;;;;;17.80;41.49;101343.44;4957586;28;20038;-70
2021/09/16 10:59:51;;;;;;;3.30;0.25;;;;;;;18.20;40.59;101348.88;4960158;28;20073;-70
2021/09/16 11:02:21;;;;;;;4.65;0.40;;;;;;;17.72;41.68;101343.94;4970989;28;20045;-70
2021/09/16 11:05:12;;;;;;;0.75;0.22;;;;;;;18.21;42.04;101343.50;4965128;28;20455;-69
2021/09/16 11:07:38;;;;;;;2.70;0.20;;;;;;;18.41;41.40;101330.75;4948351;28;20045;-69
2021/09/16 11:10:16;;;;;;;6.05;0.30;;;;;;;18.58;41.21;101340.19;4967263;28;20043;-69
2021/09/16 11:12:52;;;;;;;5.90;0.40;;;;;;;19.32;39.93;101335.19;4966157;28;20675;-70
2021/09/16 11:15:24;;;;;;;7.25;0.65;;;;;;;19.35;39.31;101332.34;4966056;28;20034;-72
2021/09/16 11:17:50;;;;;;;2.47;0.45;;;;;;;19.69;38.66;101336.13;4967057;28;20886;-69
2021/09/16 11:20:16;;;;;;;5.05;0.40;;;;;;;19.37;39.39;101336.59;4960257;28;20241;-69
2021/09/16 11:22:42;;;;;;;5.85;0.57;;;;;;;18.35;41.51;101339.09;4945509;28;20027;-70
2021/09/16 11:25:09;;;;;;;7.15;0.40;;;;;;;18.69;41.08;101343.81;4967896;28;20053;-69